Time,TemperatureF,DewpointF,PressureIn,WindDirection,WindDirectionDegrees,WindSpeedMPH,WindSpeedGustMPH,Humidity,HourlyPrecipIn,Conditions,Clouds,dailyrainin,SoftwareType,DateUTC
2013-03-21 00:01:00,39.0,32.0,29.95,SW,220,9.0,13.0,75,0.00,,,0.56,,2013-03-21 07:01:00,
2013-03-21 00:12:00,39.0,32.0,29.95,SW,220,9.0,13.0,75,0.00,,,0.56,,2013-03-21 07:12:00,
2013-03-21 00:21:00,39.0,32.0,29.96,SSW,209,7.0,13.0,76,0.00,,,0.53,,2013-03-21 07:21:00,
2013-03-21 00:31:00,38.0,32.0,29.96,SW,216,8.0,17.0,80,0.00,,,0.50,,2013-03-21 07:31:00,
2013-03-21 00:41:00,38.0,32.0,29.96,SW,216,8.0,17.0,80,0.00,,,0.50,,2013-03-21 07:41:00,
2013-03-21 00:52:00,38.0,33.0,29.97,SSW,201,3.0,11.0,81,0.00,,,0.48,,2013-03-21 07:52:00,
2013-03-21 01:01:00,38.0,33.0,29.97,SW,221,4.0,10.0,82,0.00,,,0.45,,2013-03-21 08:01:00,
2013-03-21 01:12:00,38.0,33.0,29.97,SSW,196,4.0,10.0,82,0.00,,,0.42,,2013-03-21 08:12:00,
2013-03-21 01:22:00,38.0,33.0,29.97,SSW,196,4.0,10.0,82,0.00,,,0.42,,2013-03-21 08:22:00,
2013-03-21 01:32:00,38.0,33.0,29.98,SSW,213,3.0,10.0,82,0.00,,,0.39,,2013-03-21 08:32:00,
2013-03-21 01:42:00,38.0,33.0,29.98,SSW,213,3.0,10.0,82,0.00,,,0.39,,2013-03-21 08:42:00,
2013-03-21 01:52:00,38.0,33.0,29.99,SW,228,4.0,7.0,81,0.00,,,0.38,,2013-03-21 08:52:00,
2013-03-21 02:01:00,38.0,33.0,30.00,SSW,207,9.0,15.0,81,0.00,,,0.37,,2013-03-21 09:01:00,
2013-03-21 02:11:00,38.0,33.0,30.00,SSW,207,9.0,15.0,81,0.00,,,0.37,,2013-03-21 09:11:00,
2013-03-21 02:21:00,37.0,32.0,30.00,SW,220,8.0,17.0,82,0.00,,,0.37,,2013-03-21 09:21:00,
2013-03-21 02:32:00,37.0,33.0,30.00,South,188,3.0,6.0,84,0.00,,,0.36,,2013-03-21 09:32:00,
2013-03-21 02:43:00,37.0,33.0,30.00,South,188,3.0,6.0,84,0.00,,,0.36,,2013-03-21 09:43:00,
2013-03-21 02:53:00,37.0,33.0,30.01,SSW,210,5.0,13.0,84,0.00,,,0.36,,2013-03-21 09:53:00,
2013-03-21 03:02:00,37.0,32.0,30.01,SW,216,5.0,17.0,83,0.00,,,0.36,,2013-03-21 10:02:00,
2013-03-21 03:12:00,37.0,32.0,30.01,SW,216,5.0,17.0,83,0.00,,,0.36,,2013-03-21 10:12:00,
2013-03-21 03:22:00,37.0,33.0,30.02,SSW,203,3.0,10.0,84,0.00,,,0.36,,2013-03-21 10:22:00,
2013-03-21 03:32:00,37.0,33.0,30.02,South,183,3.0,11.0,84,0.00,,,0.36,,2013-03-21 10:32:00,
2013-03-21 03:42:00,37.0,33.0,30.02,South,183,3.0,11.0,84,0.00,,,0.36,,2013-03-21 10:42:00,
2013-03-21 03:53:00,37.0,33.0,30.02,SSW,200,3.0,10.0,85,0.00,,,0.35,,2013-03-21 10:53:00,
2013-03-21 04:02:00,37.0,33.0,30.02,SW,219,6.0,12.0,85,0.00,,,0.35,,2013-03-21 11:02:00,
2013-03-21 04:12:00,37.0,33.0,30.02,SW,219,6.0,12.0,85,0.00,,,0.35,,2013-03-21 11:12:00,
2013-03-21 04:22:00,37.0,33.0,30.03,North,0,0.0,7.0,85,0.00,,,0.35,,2013-03-21 11:22:00,
2013-03-21 04:32:00,37.0,33.0,30.03,SSW,197,3.0,9.0,85,0.00,,,0.35,,2013-03-21 11:32:00,
2013-03-21 04:42:00,37.0,33.0,30.03,SSW,197,3.0,9.0,85,0.00,,,0.35,,2013-03-21 11:42:00,
2013-03-21 04:52:00,37.0,33.0,30.03,SSW,212,5.0,9.0,85,0.00,,,0.32,,2013-03-21 11:52:00,
2013-03-21 05:01:00,37.0,33.0,30.03,SSW,210,4.0,12.0,85,0.00,,,0.30,,2013-03-21 12:01:00,
2013-03-21 05:11:00,37.0,33.0,30.03,SSW,210,4.0,12.0,85,0.00,,,0.30,,2013-03-21 12:11:00,
2013-03-21 05:21:00,37.0,33.0,30.04,SW,222,7.0,13.0,85,0.00,,,0.25,,2013-03-21 12:21:00,
2013-03-21 05:32:00,37.0,33.0,30.05,SW,216,7.0,12.0,85,0.00,,,0.24,,2013-03-21 12:32:00,
2013-03-21 05:41:00,37.0,33.0,30.05,SW,216,7.0,12.0,85,0.00,,,0.24,,2013-03-21 12:41:00,
2013-03-21 05:52:00,37.0,33.0,30.05,SW,214,7.0,12.0,85,0.00,,,0.21,,2013-03-21 12:52:00,
2013-03-21 06:02:00,37.0,33.0,30.05,SW,226,8.0,13.0,85,0.00,,,0.18,,2013-03-21 13:02:00,
2013-03-21 06:11:00,37.0,33.0,30.05,SW,226,8.0,13.0,85,0.00,,,0.18,,2013-03-21 13:11:00,
2013-03-21 06:21:00,37.0,33.0,30.06,SW,214,8.0,13.0,85,0.00,,,0.13,,2013-03-21 13:21:00,
2013-03-21 06:31:00,37.0,33.0,30.06,SW,222,7.0,12.0,84,0.00,,,0.11,,2013-03-21 13:31:00,
2013-03-21 06:42:00,37.0,33.0,30.06,SW,222,7.0,12.0,84,0.00,,,0.11,,2013-03-21 13:42:00,
2013-03-21 06:52:00,37.0,33.0,30.06,SSW,193,4.0,12.0,84,0.00,,,0.10,,2013-03-21 13:52:00,
2013-03-21 07:01:00,37.0,33.0,30.06,SW,221,4.0,10.0,85,0.00,,,0.10,,2013-03-21 14:01:00,
2013-03-21 07:11:00,37.0,33.0,30.07,SW,217,3.0,9.0,85,0.00,,,0.10,,2013-03-21 14:11:00,
2013-03-21 07:21:00,37.0,33.0,30.07,SW,217,3.0,9.0,85,0.00,,,0.10,,2013-03-21 14:21:00,
2013-03-21 07:32:00,37.0,34.0,30.07,SW,236,8.0,13.0,88,0.00,,,0.09,,2013-03-21 14:32:00,
2013-03-21 07:42:00,37.0,34.0,30.07,SW,236,8.0,13.0,88,0.00,,,0.09,,2013-03-21 14:42:00,
2013-03-21 07:52:00,37.0,33.0,30.07,SW,223,7.0,14.0,86,0.00,,,0.08,,2013-03-21 14:52:00,
2013-03-21 08:01:00,37.0,33.0,30.08,SSW,197,4.0,10.0,86,0.00,,,0.08,,2013-03-21 15:01:00,
2013-03-21 08:11:00,37.0,33.0,30.08,SW,227,5.0,12.0,86,0.00,,,0.08,,2013-03-21 15:11:00,
2013-03-21 08:21:00,37.0,33.0,30.08,SW,227,5.0,12.0,86,0.00,,,0.08,,2013-03-21 15:21:00,
2013-03-21 08:32:00,37.0,34.0,30.08,SW,234,5.0,10.0,87,0.00,,,0.08,,2013-03-21 15:32:00,
2013-03-21 08:42:00,37.0,34.0,30.08,SW,234,5.0,10.0,87,0.00,,,0.08,,2013-03-21 15:42:00,
2013-03-21 08:53:00,37.0,34.0,30.08,SW,234,5.0,10.0,87,0.00,,,0.08,,2013-03-21 15:53:00,
2013-03-21 09:03:00,38.0,34.0,30.08,SW,220,6.0,10.0,85,0.00,,,0.02,,2013-03-21 16:03:00,
2013-03-21 09:12:00,38.0,34.0,30.08,SW,220,6.0,10.0,85,0.00,,,0.02,,2013-03-21 16:12:00,
2013-03-21 09:22:00,39.0,34.0,30.09,SSW,199,4.0,10.0,83,0.00,,,0.01,,2013-03-21 16:22:00,
2013-03-21 09:32:00,39.0,34.0,30.09,SW,223,3.0,11.0,82,0.00,,,0.01,,2013-03-21 16:32:00,
2013-03-21 09:41:00,39.0,34.0,30.09,SW,223,3.0,11.0,82,0.00,,,0.01,,2013-03-21 16:41:00,
2013-03-21 09:53:00,39.0,33.0,30.09,SW,218,5.0,12.0,80,0.00,,,0.00,,2013-03-21 16:53:00,
2013-03-21 10:01:00,39.0,33.0,30.10,SSW,192,4.0,11.0,80,0.00,,,0.00,,2013-03-21 17:01:00,
2013-03-21 10:11:00,39.0,33.0,30.10,SSW,192,4.0,11.0,80,0.00,,,0.00,,2013-03-21 17:11:00,
2013-03-21 10:22:00,40.0,34.0,30.10,SW,221,6.0,15.0,79,0.00,,,0.00,,2013-03-21 17:22:00,
2013-03-21 10:32:00,41.0,34.0,30.11,SSW,203,6.0,15.0,75,0.00,,,0.00,,2013-03-21 17:32:00,
2013-03-21 10:42:00,41.0,34.0,30.11,SSW,203,6.0,15.0,75,0.00,,,0.00,,2013-03-21 17:42:00,
2013-03-21 10:53:00,41.0,34.0,30.11,SSW,208,5.0,14.0,75,0.00,,,0.00,,2013-03-21 17:53:00,
2013-03-21 11:01:00,42.0,34.0,30.11,SW,227,5.0,10.0,72,0.00,,,0.00,,2013-03-21 18:01:00,
2013-03-21 11:11:00,42.0,34.0,30.11,SW,227,5.0,10.0,72,0.00,,,0.00,,2013-03-21 18:11:00,
2013-03-21 11:21:00,42.0,33.0,30.11,SW,223,8.0,14.0,71,0.00,,,0.00,,2013-03-21 18:21:00,
2013-03-21 11:32:00,43.0,34.0,30.11,SSW,204,3.0,9.0,71,0.00,,,0.00,,2013-03-21 18:32:00,
2013-03-21 11:42:00,43.0,33.0,30.11,SSW,193,4.0,12.0,68,0.00,,,0.00,,2013-03-21 18:42:00,
2013-03-21 11:52:00,43.0,33.0,30.11,SSW,193,4.0,12.0,68,0.00,,,0.00,,2013-03-21 18:52:00,
2013-03-21 12:02:00,44.0,33.0,30.11,South,183,2.0,6.0,66,0.00,,,0.00,,2013-03-21 19:02:00,
2013-03-21 12:11:00,44.0,33.0,30.11,South,183,2.0,6.0,66,0.00,,,0.00,,2013-03-21 19:11:00,
2013-03-21 12:21:00,44.0,33.0,30.11,SW,215,4.0,10.0,66,0.00,,,0.00,,2013-03-21 19:21:00,
2013-03-21 12:31:00,44.0,33.0,30.11,SW,215,4.0,10.0,66,0.00,,,0.00,,2013-03-21 19:31:00,
2013-03-21 12:41:00,44.0,33.0,30.11,SW,215,4.0,10.0,66,0.00,,,0.00,,2013-03-21 19:41:00,
2013-03-21 12:52:00,44.0,33.0,30.11,SW,215,4.0,10.0,66,0.00,,,0.00,,2013-03-21 19:52:00,
2013-03-21 13:02:00,45.0,34.0,30.11,South,172,4.0,9.0,66,0.00,,,0.00,,2013-03-21 20:02:00,
2013-03-21 13:12:00,45.0,34.0,30.11,South,172,4.0,9.0,66,0.00,,,0.00,,2013-03-21 20:12:00,
2013-03-21 13:22:00,47.0,33.0,30.11,SSE,157,1.0,9.0,59,0.00,,,0.00,,2013-03-21 20:22:00,
2013-03-21 13:32:00,47.0,34.0,30.11,SSW,197,4.0,6.0,60,0.00,,,0.00,,2013-03-21 20:32:00,
2013-03-21 13:41:00,47.0,34.0,30.11,SSW,197,4.0,6.0,60,0.00,,,0.00,,2013-03-21 20:41:00,
2013-03-21 13:53:00,47.0,34.0,30.10,North,0,0.0,8.0,61,0.00,,,0.00,,2013-03-21 20:53:00,
2013-03-21 14:01:00,47.0,34.0,30.10,North,0,0.0,8.0,61,0.00,,,0.00,,2013-03-21 21:01:00,
2013-03-21 14:11:00,47.0,34.0,30.10,North,0,0.0,8.0,61,0.00,,,0.00,,2013-03-21 21:11:00,
2013-03-21 14:21:00,43.0,36.0,30.09,South,187,4.0,10.0,77,0.01,,,0.01,,2013-03-21 21:21:00,
2013-03-21 14:33:00,44.0,37.0,30.09,SE,136,2.0,5.0,75,0.01,,,0.01,,2013-03-21 21:33:00,
2013-03-21 14:43:00,44.0,37.0,30.09,SE,136,2.0,5.0,75,0.01,,,0.01,,2013-03-21 21:43:00,
2013-03-21 14:53:00,44.0,37.0,30.09,SE,136,2.0,5.0,75,0.01,,,0.01,,2013-03-21 21:53:00,
2013-03-21 15:02:00,46.0,37.0,30.08,SE,145,3.0,9.0,70,0.01,,,0.01,,2013-03-21 22:02:00,
2013-03-21 15:12:00,46.0,37.0,30.08,SE,145,3.0,9.0,70,0.01,,,0.01,,2013-03-21 22:12:00,
2013-03-21 15:23:00,46.0,37.0,30.08,SE,145,3.0,9.0,70,0.01,,,0.01,,2013-03-21 22:23:00,
2013-03-21 15:33:00,46.0,37.0,30.08,SE,145,3.0,9.0,70,0.01,,,0.01,,2013-03-21 22:33:00,
2013-03-21 15:42:00,46.0,37.0,30.08,SE,145,3.0,9.0,70,0.01,,,0.01,,2013-03-21 22:42:00,
2013-03-21 15:52:00,46.0,36.0,30.09,NNW,344,4.0,10.0,67,0.00,,,0.01,,2013-03-21 22:52:00,
2013-03-21 16:02:00,44.0,35.0,30.09,NNW,346,6.0,14.0,70,0.00,,,0.01,,2013-03-21 23:02:00,
2013-03-21 16:12:00,44.0,35.0,30.09,NNW,346,6.0,14.0,70,0.00,,,0.01,,2013-03-21 23:12:00,
2013-03-21 16:21:00,44.0,34.0,30.09,North,4,9.0,14.0,69,0.00,,,0.01,,2013-03-21 23:21:00,
2013-03-21 16:32:00,44.0,34.0,30.09,North,4,9.0,14.0,69,0.00,,,0.01,,2013-03-21 23:32:00,
2013-03-21 16:42:00,44.0,34.0,30.09,North,4,9.0,14.0,69,0.00,,,0.01,,2013-03-21 23:42:00,
2013-03-21 16:52:00,42.0,34.0,30.10,ESE,103,3.0,11.0,73,0.00,,,0.01,,2013-03-21 23:52:00,
2013-03-21 17:02:00,42.0,35.0,30.10,ENE,76,7.0,11.0,75,0.00,,,0.01,,2013-03-22 00:02:00,
2013-03-21 17:12:00,42.0,35.0,30.10,ENE,76,7.0,11.0,75,0.00,,,0.01,,2013-03-22 00:12:00,
2013-03-21 17:22:00,43.0,37.0,30.10,ENE,74,7.0,10.0,78,0.00,,,0.01,,2013-03-22 00:22:00,
2013-03-21 17:31:00,42.0,36.0,30.10,East,81,5.0,11.0,80,0.00,,,0.01,,2013-03-22 00:31:00,
2013-03-21 17:41:00,42.0,36.0,30.10,East,81,5.0,11.0,80,0.00,,,0.01,,2013-03-22 00:41:00,
2013-03-21 17:52:00,42.0,36.0,30.10,East,81,5.0,11.0,80,0.00,,,0.01,,2013-03-22 00:52:00,
2013-03-21 18:01:00,41.0,34.0,30.11,NNE,30,4.0,10.0,75,0.00,,,0.01,,2013-03-22 01:01:00,
2013-03-21 18:11:00,41.0,34.0,30.11,NNE,30,4.0,10.0,75,0.00,,,0.01,,2013-03-22 01:11:00,
2013-03-21 18:22:00,40.0,35.0,30.11,NNW,347,3.0,9.0,81,0.00,,,0.01,,2013-03-22 01:22:00,
2013-03-21 18:32:00,38.0,34.0,30.11,NNE,30,8.0,13.0,84,0.01,,,0.02,,2013-03-22 01:32:00,
2013-03-21 18:42:00,38.0,34.0,30.11,NNE,30,8.0,13.0,84,0.01,,,0.02,,2013-03-22 01:42:00,
2013-03-21 18:53:00,38.0,34.0,30.10,North,0,0.0,7.0,85,0.02,,,0.03,,2013-03-22 01:53:00,
2013-03-21 19:01:00,38.0,34.0,30.10,NW,324,3.0,4.0,86,0.03,,,0.04,,2013-03-22 02:01:00,
2013-03-21 19:11:00,38.0,34.0,30.10,NW,324,3.0,4.0,86,0.03,,,0.04,,2013-03-22 02:11:00,
2013-03-21 19:21:00,39.0,35.0,30.11,North,0,0.0,2.0,85,0.03,,,0.04,,2013-03-22 02:21:00,
2013-03-21 19:31:00,39.0,35.0,30.11,North,0,0.0,2.0,86,0.01,,,0.04,,2013-03-22 02:31:00,
2013-03-21 19:42:00,39.0,35.0,30.11,North,0,0.0,2.0,86,0.01,,,0.04,,2013-03-22 02:42:00,
2013-03-21 19:52:00,39.0,34.0,30.11,North,0,0.0,2.0,82,0.01,,,0.04,,2013-03-22 02:52:00,
2013-03-21 20:01:00,39.0,35.0,30.11,North,0,0.0,4.0,85,0.00,,,0.04,,2013-03-22 03:01:00,
2013-03-21 20:11:00,39.0,35.0,30.11,North,0,0.0,4.0,85,0.00,,,0.04,,2013-03-22 03:11:00,
2013-03-21 20:21:00,38.0,35.0,30.11,SW,223,3.0,5.0,88,0.00,,,0.04,,2013-03-22 03:21:00,
2013-03-21 20:32:00,38.0,35.0,30.11,SW,223,3.0,5.0,88,0.00,,,0.04,,2013-03-22 03:32:00,
2013-03-21 20:42:00,38.0,35.0,30.11,SW,223,3.0,5.0,88,0.00,,,0.04,,2013-03-22 03:42:00,
2013-03-21 20:53:00,38.0,35.0,30.13,South,172,3.0,7.0,89,0.00,,,0.04,,2013-03-22 03:53:00,
2013-03-21 21:02:00,38.0,35.0,30.13,South,178,2.0,5.0,90,0.00,,,0.04,,2013-03-22 04:02:00,
2013-03-21 21:12:00,38.0,35.0,30.13,South,178,2.0,5.0,90,0.00,,,0.04,,2013-03-22 04:12:00,
2013-03-21 21:22:00,38.0,35.0,30.14,SSW,192,4.0,8.0,90,0.00,,,0.04,,2013-03-22 04:22:00,
2013-03-21 21:32:00,38.0,35.0,30.14,SSW,192,4.0,8.0,90,0.00,,,0.04,,2013-03-22 04:32:00,
2013-03-21 21:42:00,38.0,35.0,30.14,SSW,192,4.0,8.0,90,0.00,,,0.04,,2013-03-22 04:42:00,
2013-03-21 21:52:00,37.0,35.0,30.14,South,182,2.0,9.0,91,0.00,,,0.04,,2013-03-22 04:52:00,
2013-03-21 22:01:00,37.0,35.0,30.14,South,184,2.0,6.0,91,0.00,,,0.04,,2013-03-22 05:01:00,
2013-03-21 22:12:00,37.0,35.0,30.14,South,184,2.0,6.0,91,0.00,,,0.04,,2013-03-22 05:12:00,
2013-03-21 22:22:00,37.0,35.0,30.15,North,0,0.0,5.0,92,0.00,,,0.04,,2013-03-22 05:22:00,
2013-03-21 22:32:00,37.0,35.0,30.15,North,0,0.0,3.0,92,0.00,,,0.04,,2013-03-22 05:32:00,
2013-03-21 22:42:00,37.0,35.0,30.15,North,0,0.0,3.0,92,0.00,,,0.04,,2013-03-22 05:42:00,
2013-03-21 22:52:00,37.0,35.0,30.15,North,0,0.0,3.0,93,0.00,,,0.04,,2013-03-22 05:52:00,
2013-03-21 23:01:00,36.0,34.0,30.15,ESE,117,1.0,5.0,93,0.00,,,0.04,,2013-03-22 06:01:00,
2013-03-21 23:12:00,36.0,34.0,30.15,ESE,117,1.0,5.0,93,0.00,,,0.04,,2013-03-22 06:12:00,
2013-03-21 23:21:00,36.0,34.0,30.14,North,0,0.0,3.0,93,0.00,,,0.04,,2013-03-22 06:21:00,
2013-03-21 23:31:00,36.0,34.0,30.16,North,0,0.0,1.0,94,0.00,,,0.04,,2013-03-22 06:31:00,
2013-03-21 23:41:00,36.0,34.0,30.16,North,0,0.0,1.0,94,0.00,,,0.04,,2013-03-22 06:41:00,
2013-03-21 23:52:00,36.0,34.0,30.16,ESE,107,1.0,3.0,94,0.00,,,0.04,,2013-03-22 06:52:00,